sensor_id;sensor_type;location;lat;lon;timestamp;P1;durP1;ratioP1;P2;durP2;ratioP2
33826;SDS011;20128;45.582;5.298;2022-07-29T00:01:45;5.65;;;1.60;;
33826;SDS011;20128;45.582;5.298;2022-07-29T00:04:11;3.95;;;1.70;;
33826;SDS011;20128;45.582;5.298;2022-07-29T00:06:37;4.82;;;1.95;;
33826;SDS011;20128;45.582;5.298;2022-07-29T00:09:02;4.22;;;1.45;;
33826;SDS011;20128;45.582;5.298;2022-07-29T00:11:28;7.05;;;1.60;;
33826;SDS011;20128;45.582;5.298;2022-07-29T00:13:54;3.22;;;1.77;;
33826;SDS011;20128;45.582;5.298;2022-07-29T00:16:19;5.05;;;1.73;;
33826;SDS011;20128;45.582;5.298;2022-07-29T00:18:45;6.38;;;1.75;;
33826;SDS011;20128;45.582;5.298;2022-07-29T00:21:11;6.22;;;2.42;;
33826;SDS011;20128;45.582;5.298;2022-07-29T00:23:36;5.03;;;1.30;;
33826;SDS011;20128;45.582;5.298;2022-07-29T00:26:02;3.03;;;1.30;;
33826;SDS011;20128;45.582;5.298;2022-07-29T00:28:28;4.57;;;1.88;;
33826;SDS011;20128;45.582;5.298;2022-07-29T00:30:53;4.07;;;1.50;;
33826;SDS011;20128;45.582;5.298;2022-07-29T00:33:19;4.65;;;1.67;;
33826;SDS011;20128;45.582;5.298;2022-07-29T00:35:45;2.92;;;1.60;;
33826;SDS011;20128;45.582;5.298;2022-07-29T00:38:14;3.72;;;1.40;;
33826;SDS011;20128;45.582;5.298;2022-07-29T00:40:41;5.88;;;1.83;;
33826;SDS011;20128;45.582;5.298;2022-07-29T00:43:08;2.38;;;1.10;;
33826;SDS011;20128;45.582;5.298;2022-07-29T00:45:34;5.18;;;1.17;;
33826;SDS011;20128;45.582;5.298;2022-07-29T00:47:59;4.20;;;1.33;;
33826;SDS011;20128;45.582;5.298;2022-07-29T00:50:26;2.97;;;1.30;;
33826;SDS011;20128;45.582;5.298;2022-07-29T00:52:52;2.67;;;1.77;;
33826;SDS011;20128;45.582;5.298;2022-07-29T00:55:18;3.22;;;1.70;;
33826;SDS011;20128;45.582;5.298;2022-07-29T00:57:44;6.20;;;2.10;;
33826;SDS011;20128;45.582;5.298;2022-07-29T01:00:12;7.22;;;1.63;;
33826;SDS011;20128;45.582;5.298;2022-07-29T01:02:42;8.73;;;1.48;;
33826;SDS011;20128;45.582;5.298;2022-07-29T01:05:08;4.95;;;1.35;;
33826;SDS011;20128;45.582;5.298;2022-07-29T01:07:36;2.25;;;1.40;;
33826;SDS011;20128;45.582;5.298;2022-07-29T01:10:03;3.25;;;1.75;;
33826;SDS011;20128;45.582;5.298;2022-07-29T01:12:31;4.40;;;2.00;;
33826;SDS011;20128;45.582;5.298;2022-07-29T01:14:58;3.85;;;1.48;;
33826;SDS011;20128;45.582;5.298;2022-07-29T01:17:31;3.33;;;1.55;;
33826;SDS011;20128;45.582;5.298;2022-07-29T01:31:39;6.63;;;1.55;;
33826;SDS011;20128;45.582;5.298;2022-07-29T01:34:25;5.25;;;1.38;;
33826;SDS011;20128;45.582;5.298;2022-07-29T01:37:18;3.70;;;1.55;;
33826;SDS011;20128;45.582;5.298;2022-07-29T01:39:59;8.05;;;1.60;;
33826;SDS011;20128;45.582;5.298;2022-07-29T01:42:35;3.08;;;1.33;;
33826;SDS011;20128;45.582;5.298;2022-07-29T01:50:40;1.70;;;1.30;;
33826;SDS011;20128;45.582;5.298;2022-07-29T01:53:12;2.30;;;1.38;;
33826;SDS011;20128;45.582;5.298;2022-07-29T01:55:40;3.00;;;1.45;;
33826;SDS011;20128;45.582;5.298;2022-07-29T01:58:09;3.78;;;1.70;;
33826;SDS011;20128;45.582;5.298;2022-07-29T02:00:37;4.40;;;1.77;;
33826;SDS011;20128;45.582;5.298;2022-07-29T02:03:05;3.75;;;1.38;;
33826;SDS011;20128;45.582;5.298;2022-07-29T02:05:34;3.80;;;1.30;;
33826;SDS011;20128;45.582;5.298;2022-07-29T02:08:02;6.45;;;1.60;;
33826;SDS011;20128;45.582;5.298;2022-07-29T02:10:31;3.55;;;1.60;;
33826;SDS011;20128;45.582;5.298;2022-07-29T02:12:58;4.28;;;1.52;;
33826;SDS011;20128;45.582;5.298;2022-07-29T02:15:27;3.20;;;1.27;;
33826;SDS011;20128;45.582;5.298;2022-07-29T02:18:00;4.70;;;1.60;;
33826;SDS011;20128;45.582;5.298;2022-07-29T02:20:29;2.85;;;1.23;;
33826;SDS011;20128;45.582;5.298;2022-07-29T02:22:57;7.18;;;1.63;;
33826;SDS011;20128;45.582;5.298;2022-07-29T02:25:24;5.22;;;1.80;;
33826;SDS011;20128;45.582;5.298;2022-07-29T02:27:52;3.10;;;1.50;;
33826;SDS011;20128;45.582;5.298;2022-07-29T02:30:19;2.70;;;1.50;;
33826;SDS011;20128;45.582;5.298;2022-07-29T02:32:46;10.77;;;1.52;;
33826;SDS011;20128;45.582;5.298;2022-07-29T02:35:14;3.70;;;1.33;;
33826;SDS011;20128;45.582;5.298;2022-07-29T02:37:41;8.25;;;1.70;;
33826;SDS011;20128;45.582;5.298;2022-07-29T02:40:11;2.85;;;1.48;;
33826;SDS011;20128;45.582;5.298;2022-07-29T02:42:38;3.95;;;1.60;;
33826;SDS011;20128;45.582;5.298;2022-07-29T02:45:07;4.63;;;1.25;;
33826;SDS011;20128;45.582;5.298;2022-07-29T02:47:35;2.75;;;1.58;;
33826;SDS011;20128;45.582;5.298;2022-07-29T02:50:09;4.30;;;1.58;;
33826;SDS011;20128;45.582;5.298;2022-07-29T02:52:47;9.48;;;1.98;;
33826;SDS011;20128;45.582;5.298;2022-07-29T03:00:53;6.55;;;2.13;;
33826;SDS011;20128;45.582;5.298;2022-07-29T03:03:22;2.50;;;1.20;;
33826;SDS011;20128;45.582;5.298;2022-07-29T03:05:55;6.40;;;1.80;;
33826;SDS011;20128;45.582;5.298;2022-07-29T03:08:22;2.90;;;1.55;;
33826;SDS011;20128;45.582;5.298;2022-07-29T03:10:49;3.08;;;1.40;;
33826;SDS011;20128;45.582;5.298;2022-07-29T03:13:16;3.85;;;1.30;;
33826;SDS011;20128;45.582;5.298;2022-07-29T03:15:43;4.63;;;1.70;;
33826;SDS011;20128;45.582;5.298;2022-07-29T03:18:10;5.22;;;1.52;;
33826;SDS011;20128;45.582;5.298;2022-07-29T03:20:36;3.10;;;1.30;;
33826;SDS011;20128;45.582;5.298;2022-07-29T03:23:03;3.25;;;1.48;;
33826;SDS011;20128;45.582;5.298;2022-07-29T03:25:29;1.70;;;1.40;;
33826;SDS011;20128;45.582;5.298;2022-07-29T03:27:55;4.68;;;1.50;;
33826;SDS011;20128;45.582;5.298;2022-07-29T03:30:21;5.97;;;1.75;;
33826;SDS011;20128;45.582;5.298;2022-07-29T03:32:47;3.40;;;1.77;;
33826;SDS011;20128;45.582;5.298;2022-07-29T03:35:15;6.00;;;1.85;;
33826;SDS011;20128;45.582;5.298;2022-07-29T03:37:41;5.43;;;1.60;;
33826;SDS011;20128;45.582;5.298;2022-07-29T03:40:08;7.07;;;1.92;;
33826;SDS011;20128;45.582;5.298;2022-07-29T03:42:36;9.40;;;1.70;;
33826;SDS011;20128;45.582;5.298;2022-07-29T03:45:08;8.27;;;2.15;;
33826;SDS011;20128;45.582;5.298;2022-07-29T03:47:42;5.43;;;1.60;;
33826;SDS011;20128;45.582;5.298;2022-07-29T03:50:12;2.08;;;1.45;;
33826;SDS011;20128;45.582;5.298;2022-07-29T03:52:40;5.43;;;1.90;;
33826;SDS011;20128;45.582;5.298;2022-07-29T03:55:06;2.53;;;1.40;;
33826;SDS011;20128;45.582;5.298;2022-07-29T03:57:32;3.10;;;1.65;;
33826;SDS011;20128;45.582;5.298;2022-07-29T04:00:00;2.50;;;1.60;;
33826;SDS011;20128;45.582;5.298;2022-07-29T04:02:28;8.95;;;1.67;;
33826;SDS011;20128;45.582;5.298;2022-07-29T04:04:54;3.35;;;1.45;;
33826;SDS011;20128;45.582;5.298;2022-07-29T04:07:20;3.95;;;1.70;;
33826;SDS011;20128;45.582;5.298;2022-07-29T04:09:45;6.30;;;2.15;;
33826;SDS011;20128;45.582;5.298;2022-07-29T04:12:11;4.40;;;1.42;;
33826;SDS011;20128;45.582;5.298;2022-07-29T04:14:37;8.63;;;2.50;;
33826;SDS011;20128;45.582;5.298;2022-07-29T04:17:03;3.05;;;1.73;;
33826;SDS011;20128;45.582;5.298;2022-07-29T04:19:29;10.85;;;3.30;;
33826;SDS011;20128;45.582;5.298;2022-07-29T04:21:56;4.28;;;1.67;;
33826;SDS011;20128;45.582;5.298;2022-07-29T04:24:22;5.65;;;2.05;;
33826;SDS011;20128;45.582;5.298;2022-07-29T04:26:47;8.07;;;2.72;;
33826;SDS011;20128;45.582;5.298;2022-07-29T04:29:13;4.53;;;1.52;;
33826;SDS011;20128;45.582;5.298;2022-07-29T04:31:40;4.32;;;1.60;;
33826;SDS011;20128;45.582;5.298;2022-07-29T04:34:06;6.20;;;1.98;;
33826;SDS011;20128;45.582;5.298;2022-07-29T04:36:31;8.38;;;2.22;;
33826;SDS011;20128;45.582;5.298;2022-07-29T04:38:57;6.97;;;2.05;;
33826;SDS011;20128;45.582;5.298;2022-07-29T04:41:23;8.13;;;1.70;;
33826;SDS011;20128;45.582;5.298;2022-07-29T04:43:49;5.57;;;1.88;;
33826;SDS011;20128;45.582;5.298;2022-07-29T04:46:14;8.15;;;2.05;;
33826;SDS011;20128;45.582;5.298;2022-07-29T04:48:40;17.38;;;2.60;;
33826;SDS011;20128;45.582;5.298;2022-07-29T04:51:06;8.50;;;2.08;;
33826;SDS011;20128;45.582;5.298;2022-07-29T04:53:32;3.60;;;2.05;;
33826;SDS011;20128;45.582;5.298;2022-07-29T04:55:58;4.88;;;1.92;;
33826;SDS011;20128;45.582;5.298;2022-07-29T04:58:23;10.90;;;2.30;;
33826;SDS011;20128;45.582;5.298;2022-07-29T05:00:50;14.10;;;1.95;;
33826;SDS011;20128;45.582;5.298;2022-07-29T05:03:16;11.20;;;2.15;;
33826;SDS011;20128;45.582;5.298;2022-07-29T05:05:42;17.60;;;2.70;;
33826;SDS011;20128;45.582;5.298;2022-07-29T05:08:08;10.68;;;2.35;;
33826;SDS011;20128;45.582;5.298;2022-07-29T05:10:34;22.85;;;2.40;;
33826;SDS011;20128;45.582;5.298;2022-07-29T05:13:03;9.57;;;2.08;;
33826;SDS011;20128;45.582;5.298;2022-07-29T05:15:31;8.05;;;1.77;;
33826;SDS011;20128;45.582;5.298;2022-07-29T05:17:57;13.35;;;1.80;;
33826;SDS011;20128;45.582;5.298;2022-07-29T05:20:23;12.73;;;2.05;;
33826;SDS011;20128;45.582;5.298;2022-07-29T05:22:53;6.60;;;1.80;;
33826;SDS011;20128;45.582;5.298;2022-07-29T05:25:19;21.02;;;2.15;;
33826;SDS011;20128;45.582;5.298;2022-07-29T05:27:45;18.05;;;4.63;;
33826;SDS011;20128;45.582;5.298;2022-07-29T05:30:11;5.93;;;2.75;;
33826;SDS011;20128;45.582;5.298;2022-07-29T05:32:37;16.13;;;2.50;;
33826;SDS011;20128;45.582;5.298;2022-07-29T05:35:02;8.95;;;1.83;;
33826;SDS011;20128;45.582;5.298;2022-07-29T05:37:28;26.02;;;2.92;;
33826;SDS011;20128;45.582;5.298;2022-07-29T05:39:54;34.70;;;4.15;;
33826;SDS011;20128;45.582;5.298;2022-07-29T05:42:19;19.80;;;3.05;;
33826;SDS011;20128;45.582;5.298;2022-07-29T05:44:45;37.97;;;3.28;;
33826;SDS011;20128;45.582;5.298;2022-07-29T05:47:12;14.77;;;2.08;;
33826;SDS011;20128;45.582;5.298;2022-07-29T05:49:38;16.42;;;2.63;;
33826;SDS011;20128;45.582;5.298;2022-07-29T05:52:04;16.83;;;2.55;;
33826;SDS011;20128;45.582;5.298;2022-07-29T05:54:30;14.50;;;2.38;;
33826;SDS011;20128;45.582;5.298;2022-07-29T05:56:55;31.08;;;2.40;;
33826;SDS011;20128;45.582;5.298;2022-07-29T05:59:21;29.08;;;2.60;;
33826;SDS011;20128;45.582;5.298;2022-07-29T06:01:47;34.25;;;3.13;;
33826;SDS011;20128;45.582;5.298;2022-07-29T06:04:12;28.70;;;3.60;;
33826;SDS011;20128;45.582;5.298;2022-07-29T06:06:38;18.77;;;2.55;;
33826;SDS011;20128;45.582;5.298;2022-07-29T06:09:03;18.23;;;3.13;;
33826;SDS011;20128;45.582;5.298;2022-07-29T06:11:29;14.38;;;2.67;;
33826;SDS011;20128;45.582;5.298;2022-07-29T06:13:55;25.50;;;2.92;;
33826;SDS011;20128;45.582;5.298;2022-07-29T06:16:20;18.80;;;2.50;;
33826;SDS011;20128;45.582;5.298;2022-07-29T06:18:46;24.38;;;2.90;;
33826;SDS011;20128;45.582;5.298;2022-07-29T06:21:12;14.98;;;2.10;;
33826;SDS011;20128;45.582;5.298;2022-07-29T06:23:38;19.42;;;3.28;;
33826;SDS011;20128;45.582;5.298;2022-07-29T06:26:04;29.80;;;8.95;;
33826;SDS011;20128;45.582;5.298;2022-07-29T06:28:31;23.27;;;2.78;;
33826;SDS011;20128;45.582;5.298;2022-07-29T06:30:57;16.42;;;2.63;;
33826;SDS011;20128;45.582;5.298;2022-07-29T06:33:23;12.93;;;2.05;;
33826;SDS011;20128;45.582;5.298;2022-07-29T06:35:48;8.18;;;2.28;;
33826;SDS011;20128;45.582;5.298;2022-07-29T06:38:14;10.00;;;2.08;;
33826;SDS011;20128;45.582;5.298;2022-07-29T06:40:44;10.32;;;2.33;;
33826;SDS011;20128;45.582;5.298;2022-07-29T06:43:29;13.75;;;2.90;;
33826;SDS011;20128;45.582;5.298;2022-07-29T06:46:00;11.63;;;3.50;;
33826;SDS011;20128;45.582;5.298;2022-07-29T06:48:27;24.33;;;3.92;;
33826;SDS011;20128;45.582;5.298;2022-07-29T06:50:53;21.70;;;4.07;;
33826;SDS011;20128;45.582;5.298;2022-07-29T06:53:19;11.23;;;3.15;;
33826;SDS011;20128;45.582;5.298;2022-07-29T06:55:45;13.73;;;2.85;;
33826;SDS011;20128;45.582;5.298;2022-07-29T06:58:11;10.30;;;2.50;;
33826;SDS011;20128;45.582;5.298;2022-07-29T07:00:36;13.20;;;2.65;;
33826;SDS011;20128;45.582;5.298;2022-07-29T07:03:02;6.85;;;2.53;;
33826;SDS011;20128;45.582;5.298;2022-07-29T07:05:28;7.15;;;2.38;;
33826;SDS011;20128;45.582;5.298;2022-07-29T07:07:54;6.03;;;2.88;;
33826;SDS011;20128;45.582;5.298;2022-07-29T07:10:19;7.10;;;2.63;;
33826;SDS011;20128;45.582;5.298;2022-07-29T07:12:45;8.10;;;3.38;;
33826;SDS011;20128;45.582;5.298;2022-07-29T07:15:11;8.80;;;3.15;;
33826;SDS011;20128;45.582;5.298;2022-07-29T07:17:36;15.93;;;3.28;;
33826;SDS011;20128;45.582;5.298;2022-07-29T07:20:03;7.07;;;3.47;;
33826;SDS011;20128;45.582;5.298;2022-07-29T07:22:30;13.07;;;3.63;;
33826;SDS011;20128;45.582;5.298;2022-07-29T07:24:56;13.98;;;3.80;;
33826;SDS011;20128;45.582;5.298;2022-07-29T07:27:21;5.90;;;3.38;;
33826;SDS011;20128;45.582;5.298;2022-07-29T07:29:47;6.75;;;3.47;;
33826;SDS011;20128;45.582;5.298;2022-07-29T07:32:13;10.82;;;4.55;;
33826;SDS011;20128;45.582;5.298;2022-07-29T07:34:41;7.07;;;3.20;;
33826;SDS011;20128;45.582;5.298;2022-07-29T07:37:08;13.10;;;3.60;;
33826;SDS011;20128;45.582;5.298;2022-07-29T07:39:33;9.23;;;3.35;;
33826;SDS011;20128;45.582;5.298;2022-07-29T07:41:59;9.25;;;4.03;;
33826;SDS011;20128;45.582;5.298;2022-07-29T07:44:25;8.25;;;4.43;;
33826;SDS011;20128;45.582;5.298;2022-07-29T07:46:51;10.77;;;3.60;;
33826;SDS011;20128;45.582;5.298;2022-07-29T07:49:17;8.73;;;3.47;;
33826;SDS011;20128;45.582;5.298;2022-07-29T07:51:42;6.88;;;3.03;;
33826;SDS011;20128;45.582;5.298;2022-07-29T07:54:08;7.35;;;3.22;;
33826;SDS011;20128;45.582;5.298;2022-07-29T07:56:34;9.88;;;3.20;;
33826;SDS011;20128;45.582;5.298;2022-07-29T07:58:59;6.03;;;2.90;;
33826;SDS011;20128;45.582;5.298;2022-07-29T08:01:25;5.90;;;2.95;;
33826;SDS011;20128;45.582;5.298;2022-07-29T08:03:50;9.20;;;2.78;;
33826;SDS011;20128;45.582;5.298;2022-07-29T08:06:16;8.65;;;2.67;;
33826;SDS011;20128;45.582;5.298;2022-07-29T08:08:42;10.05;;;3.20;;
33826;SDS011;20128;45.582;5.298;2022-07-29T08:11:08;5.13;;;2.95;;
33826;SDS011;20128;45.582;5.298;2022-07-29T08:13:37;7.40;;;4.05;;
33826;SDS011;20128;45.582;5.298;2022-07-29T08:16:03;9.70;;;3.67;;
33826;SDS011;20128;45.582;5.298;2022-07-29T08:18:38;11.35;;;4.75;;
33826;SDS011;20128;45.582;5.298;2022-07-29T08:21:05;17.17;;;4.55;;
33826;SDS011;20128;45.582;5.298;2022-07-29T08:23:32;27.70;;;5.15;;
33826;SDS011;20128;45.582;5.298;2022-07-29T08:26:07;14.45;;;3.90;;
33826;SDS011;20128;45.582;5.298;2022-07-29T08:28:38;16.15;;;3.85;;
33826;SDS011;20128;45.582;5.298;2022-07-29T08:31:05;7.82;;;4.05;;
33826;SDS011;20128;45.582;5.298;2022-07-29T08:33:31;13.77;;;4.82;;
33826;SDS011;20128;45.582;5.298;2022-07-29T08:35:58;8.48;;;4.53;;
33826;SDS011;20128;45.582;5.298;2022-07-29T08:38:23;8.98;;;4.32;;
33826;SDS011;20128;45.582;5.298;2022-07-29T08:40:51;11.50;;;4.95;;
33826;SDS011;20128;45.582;5.298;2022-07-29T08:43:17;5.28;;;3.42;;
33826;SDS011;20128;45.582;5.298;2022-07-29T08:45:45;5.43;;;3.33;;
33826;SDS011;20128;45.582;5.298;2022-07-29T08:48:16;5.70;;;2.97;;
33826;SDS011;20128;45.582;5.298;2022-07-29T08:50:44;19.52;;;4.60;;
33826;SDS011;20128;45.582;5.298;2022-07-29T08:53:12;16.08;;;4.30;;
33826;SDS011;20128;45.582;5.298;2022-07-29T08:55:40;6.90;;;3.28;;
33826;SDS011;20128;45.582;5.298;2022-07-29T08:58:08;6.30;;;3.30;;
33826;SDS011;20128;45.582;5.298;2022-07-29T09:00:35;10.45;;;4.82;;
33826;SDS011;20128;45.582;5.298;2022-07-29T09:03:05;6.35;;;2.92;;
33826;SDS011;20128;45.582;5.298;2022-07-29T09:05:33;6.95;;;2.65;;
33826;SDS011;20128;45.582;5.298;2022-07-29T09:07:59;13.30;;;3.75;;
33826;SDS011;20128;45.582;5.298;2022-07-29T09:10:26;7.78;;;3.38;;
33826;SDS011;20128;45.582;5.298;2022-07-29T09:12:53;8.70;;;3.70;;
33826;SDS011;20128;45.582;5.298;2022-07-29T09:15:20;10.95;;;3.80;;
33826;SDS011;20128;45.582;5.298;2022-07-29T09:17:46;8.65;;;4.25;;
33826;SDS011;20128;45.582;5.298;2022-07-29T09:20:18;7.65;;;3.60;;
33826;SDS011;20128;45.582;5.298;2022-07-29T09:22:45;16.55;;;4.28;;
33826;SDS011;20128;45.582;5.298;2022-07-29T09:25:14;15.85;;;3.95;;
33826;SDS011;20128;45.582;5.298;2022-07-29T09:28:04;16.25;;;3.83;;
33826;SDS011;20128;45.582;5.298;2022-07-29T09:30:34;8.52;;;3.92;;
33826;SDS011;20128;45.582;5.298;2022-07-29T09:33:01;5.50;;;3.05;;
33826;SDS011;20128;45.582;5.298;2022-07-29T09:35:28;15.32;;;4.22;;
33826;SDS011;20128;45.582;5.298;2022-07-29T09:37:55;13.27;;;3.80;;
33826;SDS011;20128;45.582;5.298;2022-07-29T09:40:22;8.65;;;3.60;;
33826;SDS011;20128;45.582;5.298;2022-07-29T09:42:50;11.43;;;3.50;;
33826;SDS011;20128;45.582;5.298;2022-07-29T09:45:26;10.43;;;3.67;;
33826;SDS011;20128;45.582;5.298;2022-07-29T09:47:59;10.55;;;4.05;;
33826;SDS011;20128;45.582;5.298;2022-07-29T09:50:38;7.55;;;3.45;;
33826;SDS011;20128;45.582;5.298;2022-07-29T09:53:05;9.48;;;4.28;;
33826;SDS011;20128;45.582;5.298;2022-07-29T09:55:31;8.43;;;3.13;;
33826;SDS011;20128;45.582;5.298;2022-07-29T10:00:45;10.50;;;4.18;;
33826;SDS011;20128;45.582;5.298;2022-07-29T10:03:12;8.73;;;4.10;;
33826;SDS011;20128;45.582;5.298;2022-07-29T10:05:42;8.50;;;3.20;;
33826;SDS011;20128;45.582;5.298;2022-07-29T10:08:09;6.00;;;3.30;;
33826;SDS011;20128;45.582;5.298;2022-07-29T10:10:38;17.40;;;4.63;;
33826;SDS011;20128;45.582;5.298;2022-07-29T10:13:15;12.85;;;3.90;;
33826;SDS011;20128;45.582;5.298;2022-07-29T10:15:41;10.52;;;4.15;;
33826;SDS011;20128;45.582;5.298;2022-07-29T10:18:10;10.77;;;5.28;;
33826;SDS011;20128;45.582;5.298;2022-07-29T10:20:37;14.18;;;4.68;;
33826;SDS011;20128;45.582;5.298;2022-07-29T10:23:03;14.02;;;5.60;;
33826;SDS011;20128;45.582;5.298;2022-07-29T10:25:30;10.93;;;4.72;;
33826;SDS011;20128;45.582;5.298;2022-07-29T10:27:55;13.00;;;4.22;;
33826;SDS011;20128;45.582;5.298;2022-07-29T10:30:22;16.13;;;4.90;;
33826;SDS011;20128;45.582;5.298;2022-07-29T10:46:38;11.82;;;4.20;;
33826;SDS011;20128;45.582;5.298;2022-07-29T10:54:18;9.35;;;3.20;;
33826;SDS011;20128;45.582;5.298;2022-07-29T10:59:51;14.10;;;3.03;;
33826;SDS011;20128;45.582;5.298;2022-07-29T11:07:32;10.65;;;2.95;;
33826;SDS011;20128;45.582;5.298;2022-07-29T11:15:12;7.35;;;3.17;;
33826;SDS011;20128;45.582;5.298;2022-07-29T11:25:45;4.28;;;3.33;;
33826;SDS011;20128;45.582;5.298;2022-07-29T11:28:31;7.60;;;4.15;;
33826;SDS011;20128;45.582;5.298;2022-07-29T11:30:58;6.78;;;3.40;;
33826;SDS011;20128;45.582;5.298;2022-07-29T11:33:32;10.05;;;3.05;;
33826;SDS011;20128;45.582;5.298;2022-07-29T11:36:08;6.22;;;2.88;;
33826;SDS011;20128;45.582;5.298;2022-07-29T11:38:39;7.50;;;3.30;;
33826;SDS011;20128;45.582;5.298;2022-07-29T11:43:49;7.28;;;2.70;;
33826;SDS011;20128;45.582;5.298;2022-07-29T11:49:07;5.68;;;2.50;;
33826;SDS011;20128;45.582;5.298;2022-07-29T11:51:34;4.85;;;2.72;;
33826;SDS011;20128;45.582;5.298;2022-07-29T11:54:04;7.10;;;2.88;;
33826;SDS011;20128;45.582;5.298;2022-07-29T11:56:33;4.53;;;2.80;;
33826;SDS011;20128;45.582;5.298;2022-07-29T11:59:04;7.90;;;3.92;;
33826;SDS011;20128;45.582;5.298;2022-07-29T12:01:31;8.07;;;3.55;;
33826;SDS011;20128;45.582;5.298;2022-07-29T12:04:04;5.43;;;2.78;;
33826;SDS011;20128;45.582;5.298;2022-07-29T12:06:31;6.13;;;2.60;;
33826;SDS011;20128;45.582;5.298;2022-07-29T12:09:00;5.22;;;2.80;;
33826;SDS011;20128;45.582;5.298;2022-07-29T12:11:32;7.45;;;3.15;;
33826;SDS011;20128;45.582;5.298;2022-07-29T12:13:58;6.18;;;2.40;;
33826;SDS011;20128;45.582;5.298;2022-07-29T12:16:33;5.03;;;2.80;;
33826;SDS011;20128;45.582;5.298;2022-07-29T12:19:03;5.57;;;2.42;;
33826;SDS011;20128;45.582;5.298;2022-07-29T12:21:51;5.53;;;3.17;;
33826;SDS011;20128;45.582;5.298;2022-07-29T12:24:16;8.27;;;3.42;;
33826;SDS011;20128;45.582;5.298;2022-07-29T12:26:53;6.82;;;2.88;;
33826;SDS011;20128;45.582;5.298;2022-07-29T12:29:21;3.10;;;2.33;;
33826;SDS011;20128;45.582;5.298;2022-07-29T12:31:50;5.35;;;2.42;;
33826;SDS011;20128;45.582;5.298;2022-07-29T12:34:19;6.40;;;2.78;;
33826;SDS011;20128;45.582;5.298;2022-07-29T12:36:46;10.93;;;2.55;;
33826;SDS011;20128;45.582;5.298;2022-07-29T12:39:13;3.88;;;1.92;;
33826;SDS011;20128;45.582;5.298;2022-07-29T12:41:40;4.97;;;2.25;;
33826;SDS011;20128;45.582;5.298;2022-07-29T12:44:05;7.55;;;2.00;;
33826;SDS011;20128;45.582;5.298;2022-07-29T12:46:31;6.10;;;2.20;;
33826;SDS011;20128;45.582;5.298;2022-07-29T12:48:57;5.07;;;2.08;;
33826;SDS011;20128;45.582;5.298;2022-07-29T12:51:33;2.88;;;1.73;;
33826;SDS011;20128;45.582;5.298;2022-07-29T12:54:08;5.35;;;1.92;;
33826;SDS011;20128;45.582;5.298;2022-07-29T12:56:36;3.70;;;1.92;;
33826;SDS011;20128;45.582;5.298;2022-07-29T13:01:45;4.50;;;2.00;;
33826;SDS011;20128;45.582;5.298;2022-07-29T13:04:23;3.80;;;1.75;;
33826;SDS011;20128;45.582;5.298;2022-07-29T13:07:01;2.65;;;1.52;;
33826;SDS011;20128;45.582;5.298;2022-07-29T13:09:41;4.20;;;1.98;;
33826;SDS011;20128;45.582;5.298;2022-07-29T13:12:13;2.42;;;2.05;;
33826;SDS011;20128;45.582;5.298;2022-07-29T13:19:51;2.78;;;1.85;;
33826;SDS011;20128;45.582;5.298;2022-07-29T13:22:19;3.20;;;2.08;;
33826;SDS011;20128;45.582;5.298;2022-07-29T13:24:57;2.40;;;1.70;;
33826;SDS011;20128;45.582;5.298;2022-07-29T13:27:27;4.18;;;2.20;;
33826;SDS011;20128;45.582;5.298;2022-07-29T13:29:55;3.70;;;2.00;;
33826;SDS011;20128;45.582;5.298;2022-07-29T13:32:23;3.35;;;2.00;;
33826;SDS011;20128;45.582;5.298;2022-07-29T13:34:50;3.90;;;1.83;;
33826;SDS011;20128;45.582;5.298;2022-07-29T13:37:16;5.35;;;1.80;;
33826;SDS011;20128;45.582;5.298;2022-07-29T13:39:42;3.72;;;1.80;;
33826;SDS011;20128;45.582;5.298;2022-07-29T13:42:08;3.70;;;2.20;;
33826;SDS011;20128;45.582;5.298;2022-07-29T13:44:34;2.08;;;1.80;;
33826;SDS011;20128;45.582;5.298;2022-07-29T13:47:00;6.40;;;2.17;;
33826;SDS011;20128;45.582;5.298;2022-07-29T13:49:26;3.63;;;1.90;;
33826;SDS011;20128;45.582;5.298;2022-07-29T13:51:52;2.75;;;1.77;;
33826;SDS011;20128;45.582;5.298;2022-07-29T13:54:19;4.88;;;1.90;;
33826;SDS011;20128;45.582;5.298;2022-07-29T13:56:44;2.63;;;1.80;;
33826;SDS011;20128;45.582;5.298;2022-07-29T13:59:10;5.65;;;1.80;;
33826;SDS011;20128;45.582;5.298;2022-07-29T14:01:37;2.97;;;1.70;;
33826;SDS011;20128;45.582;5.298;2022-07-29T14:04:03;4.47;;;1.98;;
33826;SDS011;20128;45.582;5.298;2022-07-29T14:06:29;3.38;;;1.77;;
33826;SDS011;20128;45.582;5.298;2022-07-29T14:08:55;2.13;;;1.67;;
33826;SDS011;20128;45.582;5.298;2022-07-29T14:11:20;4.38;;;1.63;;
33826;SDS011;20128;45.582;5.298;2022-07-29T14:13:46;4.35;;;1.92;;
33826;SDS011;20128;45.582;5.298;2022-07-29T14:16:14;3.17;;;1.60;;
33826;SDS011;20128;45.582;5.298;2022-07-29T14:18:40;3.30;;;1.85;;
33826;SDS011;20128;45.582;5.298;2022-07-29T14:21:06;3.03;;;1.80;;
33826;SDS011;20128;45.582;5.298;2022-07-29T14:23:31;3.53;;;1.75;;
33826;SDS011;20128;45.582;5.298;2022-07-29T14:25:57;3.85;;;2.00;;
33826;SDS011;20128;45.582;5.298;2022-07-29T14:28:23;3.83;;;1.73;;
33826;SDS011;20128;45.582;5.298;2022-07-29T14:30:48;3.40;;;1.73;;
33826;SDS011;20128;45.582;5.298;2022-07-29T14:33:14;2.65;;;1.90;;
33826;SDS011;20128;45.582;5.298;2022-07-29T14:35:40;3.20;;;1.92;;
33826;SDS011;20128;45.582;5.298;2022-07-29T14:38:05;2.88;;;1.80;;
33826;SDS011;20128;45.582;5.298;2022-07-29T14:40:31;2.55;;;1.90;;
33826;SDS011;20128;45.582;5.298;2022-07-29T14:42:57;5.03;;;1.85;;
33826;SDS011;20128;45.582;5.298;2022-07-29T14:45:22;2.85;;;1.70;;
33826;SDS011;20128;45.582;5.298;2022-07-29T14:47:48;1.90;;;1.42;;
33826;SDS011;20128;45.582;5.298;2022-07-29T14:50:15;2.95;;;1.73;;
33826;SDS011;20128;45.582;5.298;2022-07-29T14:52:42;2.58;;;1.90;;
33826;SDS011;20128;45.582;5.298;2022-07-29T14:55:07;3.97;;;1.60;;
33826;SDS011;20128;45.582;5.298;2022-07-29T14:57:34;5.00;;;1.85;;
33826;SDS011;20128;45.582;5.298;2022-07-29T14:59:59;3.97;;;2.30;;
33826;SDS011;20128;45.582;5.298;2022-07-29T15:02:25;2.92;;;2.20;;
33826;SDS011;20128;45.582;5.298;2022-07-29T15:04:51;3.63;;;1.90;;
33826;SDS011;20128;45.582;5.298;2022-07-29T15:07:16;5.70;;;1.90;;
33826;SDS011;20128;45.582;5.298;2022-07-29T15:09:42;5.07;;;2.70;;
33826;SDS011;20128;45.582;5.298;2022-07-29T15:12:10;4.75;;;2.03;;
33826;SDS011;20128;45.582;5.298;2022-07-29T15:14:36;3.13;;;2.25;;
33826;SDS011;20128;45.582;5.298;2022-07-29T15:17:02;4.50;;;1.75;;
33826;SDS011;20128;45.582;5.298;2022-07-29T15:19:27;9.23;;;1.90;;
33826;SDS011;20128;45.582;5.298;2022-07-29T15:21:53;6.40;;;1.60;;
33826;SDS011;20128;45.582;5.298;2022-07-29T15:24:19;5.40;;;2.13;;
33826;SDS011;20128;45.582;5.298;2022-07-29T15:26:45;2.67;;;2.05;;
33826;SDS011;20128;45.582;5.298;2022-07-29T15:29:11;3.72;;;1.80;;
33826;SDS011;20128;45.582;5.298;2022-07-29T15:31:37;5.63;;;1.65;;
33826;SDS011;20128;45.582;5.298;2022-07-29T15:34:03;7.60;;;1.90;;
33826;SDS011;20128;45.582;5.298;2022-07-29T15:36:29;5.40;;;1.27;;
33826;SDS011;20128;45.582;5.298;2022-07-29T15:38:54;4.38;;;1.38;;
33826;SDS011;20128;45.582;5.298;2022-07-29T15:41:21;5.20;;;3.50;;
33826;SDS011;20128;45.582;5.298;2022-07-29T15:43:47;6.30;;;1.50;;
33826;SDS011;20128;45.582;5.298;2022-07-29T15:46:13;4.03;;;1.73;;
33826;SDS011;20128;45.582;5.298;2022-07-29T15:48:59;3.28;;;1.20;;
33826;SDS011;20128;45.582;5.298;2022-07-29T15:51:25;5.03;;;1.75;;
33826;SDS011;20128;45.582;5.298;2022-07-29T15:53:50;3.45;;;1.40;;
33826;SDS011;20128;45.582;5.298;2022-07-29T15:56:16;4.55;;;1.52;;
33826;SDS011;20128;45.582;5.298;2022-07-29T15:58:42;1.95;;;1.55;;
33826;SDS011;20128;45.582;5.298;2022-07-29T16:01:07;3.75;;;1.88;;
33826;SDS011;20128;45.582;5.298;2022-07-29T16:03:33;3.22;;;1.70;;
33826;SDS011;20128;45.582;5.298;2022-07-29T16:05:59;1.65;;;1.50;;
33826;SDS011;20128;45.582;5.298;2022-07-29T16:08:25;3.90;;;1.88;;